Time;durP1;ratioP1;P1;durP2;ratioP2;P2;SDS_P1;SDS_P2;PMS_P1;PMS_P2;Temp;Humidity;BMP_temperature;BMP_pressure;BME280_temperature;BME280_humidity;BME280_pressure;Samples;Min_cycle;Max_cycle;Signal;HPM_P1;HPM_P2
2022/04/10 00:02:00;;;;;;;5.53;2.70;;;;;;;-144.47;100.00;61586.06;6182566;23;20377;-76
2022/04/10 00:04:25;;;;;;;6.25;2.58;;;;;;;-144.47;100.00;61586.06;6156654;23;20013;-78
2022/04/10 00:06:51;;;;;;;14.60;3.13;;;;;;;-144.47;100.00;61586.06;6155220;23;20108;-78
2022/04/10 00:09:16;;;;;;;3.80;2.20;;;;;;;-144.47;100.00;61586.06;6183238;23;20017;-79
2022/04/10 00:11:42;;;;;;;6.20;2.65;;;;;;;-144.47;100.00;61586.06;6182867;23;20009;-77
2022/04/10 00:14:07;;;;;;;4.20;2.20;;;;;;;-144.47;100.00;61586.06;6182551;23;20098;-79
2022/04/10 00:16:33;;;;;;;9.07;3.05;;;;;;;-144.47;100.00;61586.06;6183264;23;20013;-78
2022/04/10 00:19:04;;;;;;;4.47;2.25;;;;;;;-144.47;100.00;61586.06;6182695;23;20012;-78
2022/04/10 00:21:33;;;;;;;1.83;1.67;;;;;;;-144.47;100.00;61586.06;6182699;23;20017;-79
2022/04/10 00:23:59;;;;;;;4.95;2.33;;;;;;;-144.47;100.00;61586.06;6182532;23;20032;-78
2022/04/10 00:26:25;;;;;;;2.72;2.42;;;;;;;-144.47;100.00;61586.06;6182889;23;20013;-77
2022/04/10 00:28:51;;;;;;;4.15;2.70;;;;;;;-144.47;100.00;61586.06;6182627;23;20079;-77
2022/04/10 00:31:17;;;;;;;8.35;2.70;;;;;;;-144.47;100.00;61586.06;6156652;23;20489;-78
2022/04/10 00:33:44;;;;;;;5.10;2.10;;;;;;;-144.47;100.00;61586.06;6183110;23;20005;-77
2022/04/10 00:36:09;;;;;;;4.82;2.20;;;;;;;-144.47;100.00;61586.06;6182299;23;20422;-79
2022/04/10 00:38:35;;;;;;;6.10;2.47;;;;;;;-144.47;100.00;61586.06;6182814;23;20008;-78
2022/04/10 00:41:01;;;;;;;3.72;2.20;;;;;;;-144.47;100.00;61586.06;6182091;23;20019;-78
2022/04/10 00:43:32;;;;;;;3.50;2.70;;;;;;;-144.47;100.00;61586.06;6182777;23;20063;-78
2022/04/10 00:46:01;;;;;;;3.35;2.38;;;;;;;-144.47;100.00;61586.06;6182051;23;20012;-77
2022/04/10 00:48:27;;;;;;;3.88;2.00;;;;;;;-144.47;100.00;61586.06;6182683;23;20044;-78
2022/04/10 00:53:40;;;;;;;5.28;2.28;;;;;;;-144.47;100.00;61586.06;6182966;23;20013;-78
2022/04/10 00:56:05;;;;;;;3.88;1.80;;;;;;;-144.47;100.00;61586.06;6155558;23;20001;-78
2022/04/10 00:58:32;;;;;;;3.15;2.30;;;;;;;-144.47;100.00;61586.06;6179343;23;20386;-77
2022/04/10 01:00:57;;;;;;;7.93;2.20;;;;;;;-144.47;100.00;61586.06;6152951;23;20040;-78
2022/04/10 01:03:23;;;;;;;2.10;1.85;;;;;;;-144.47;100.00;61586.06;6179678;23;20497;-77
2022/04/10 01:05:49;;;;;;;2.17;1.95;;;;;;;-144.47;100.00;61586.06;6154552;23;20005;-76
2022/04/10 01:08:15;;;;;;;6.13;2.50;;;;;;;-144.47;100.00;61586.06;6155931;23;20088;-78
2022/04/10 01:10:44;;;;;;;4.20;2.50;;;;;;;-144.47;100.00;61586.06;6182593;23;20040;-79
2022/04/10 01:13:10;;;;;;;6.95;2.88;;;;;;;-144.47;100.00;61586.06;6155759;23;20044;-78
2022/04/10 01:15:37;;;;;;;3.05;2.22;;;;;;;-144.47;100.00;61586.06;6182807;23;20088;-78
2022/04/10 01:18:03;;;;;;;4.10;2.25;;;;;;;-144.47;100.00;61586.06;6182248;23;20009;-77
2022/04/10 01:20:29;;;;;;;3.67;2.50;;;;;;;-144.47;100.00;61586.06;6155699;23;20088;-78
2022/04/10 01:23:01;;;;;;;3.83;2.20;;;;;;;-144.47;100.00;61586.06;6155345;23;20453;-78
2022/04/10 01:25:28;;;;;;;4.03;2.05;;;;;;;-144.47;100.00;61586.06;6182365;23;20430;-78
2022/04/10 01:27:54;;;;;;;3.67;2.55;;;;;;;-144.47;100.00;61586.06;6155197;23;20040;-80
2022/04/10 01:30:23;;;;;;;3.00;2.13;;;;;;;-144.47;100.00;61586.06;6155964;23;20010;-78
2022/04/10 01:32:49;;;;;;;7.88;2.15;;;;;;;-144.47;100.00;61586.06;6155696;23;20013;-79
2022/04/10 01:35:15;;;;;;;3.75;2.17;;;;;;;-144.47;100.00;61586.06;6182112;23;20351;-77
2022/04/10 01:37:41;;;;;;;4.05;2.22;;;;;;;-144.47;100.00;61586.06;6155161;23;20049;-77
2022/04/10 01:40:14;;;;;;;3.63;1.95;;;;;;;-144.47;100.00;61586.06;6155540;23;20001;-77
2022/04/10 01:42:40;;;;;;;4.95;2.08;;;;;;;-144.47;100.00;61586.06;6180293;23;20377;-77
2022/04/10 01:45:06;;;;;;;6.90;2.08;;;;;;;-144.47;100.00;61586.06;6154832;23;20021;-76
2022/04/10 01:47:32;;;;;;;3.65;1.92;;;;;;;-144.47;100.00;61586.06;6155425;23;20055;-77
2022/04/10 01:49:57;;;;;;;1.98;1.88;;;;;;;-144.47;100.00;61586.06;6154872;23;20001;-78
2022/04/10 01:52:23;;;;;;;3.40;2.08;;;;;;;-144.47;100.00;61586.06;6181675;23;20024;-77
2022/04/10 01:54:49;;;;;;;7.72;3.22;;;;;;;-144.47;100.00;61586.06;6155124;23;20088;-78
2022/04/10 01:57:15;;;;;;;2.75;1.98;;;;;;;-144.47;100.00;61586.06;6155200;23;20001;-78
2022/04/10 01:59:40;;;;;;;2.85;1.80;;;;;;;-144.47;100.00;61586.06;6155380;23;20446;-78
2022/04/10 02:02:06;;;;;;;2.83;2.20;;;;;;;-144.47;100.00;61586.06;6130548;23;20020;-77
2022/04/10 02:04:33;;;;;;;4.80;1.98;;;;;;;-144.47;100.00;61586.06;6181818;23;20016;-78
2022/04/10 02:06:58;;;;;;;2.58;1.67;;;;;;;-144.47;100.00;61586.06;6180227;23;20020;-77
2022/04/10 02:09:26;;;;;;;4.57;1.98;;;;;;;-144.47;100.00;61586.06;6155266;23;20430;-78
2022/04/10 02:11:52;;;;;;;3.83;1.95;;;;;;;-144.47;100.00;61586.06;6154953;23;20020;-78
2022/04/10 02:14:18;;;;;;;4.43;1.95;;;;;;;-144.47;100.00;61586.06;6155228;23;20013;-77
2022/04/10 02:16:44;;;;;;;4.63;2.03;;;;;;;-144.47;100.00;61586.06;6155234;23;20048;-78
2022/04/10 02:19:09;;;;;;;3.17;1.83;;;;;;;-144.47;100.00;61586.06;6181752;23;20023;-78
2022/04/10 02:21:36;;;;;;;3.72;1.70;;;;;;;-144.47;100.00;61586.06;6154896;23;20052;-78
2022/04/10 02:24:01;;;;;;;4.07;2.35;;;;;;;-144.47;100.00;61586.06;6181270;23;20016;-78
2022/04/10 02:26:27;;;;;;;2.97;1.77;;;;;;;-144.47;100.00;61586.06;6155259;23;20387;-79
2022/04/10 02:28:53;;;;;;;4.25;2.00;;;;;;;-144.47;100.00;61586.06;6154693;23;20016;-78
2022/04/10 02:31:18;;;;;;;3.03;2.00;;;;;;;-144.47;100.00;61586.06;6155005;23;20020;-76
2022/04/10 02:33:44;;;;;;;2.20;2.00;;;;;;;-144.47;100.00;61586.06;6181204;23;20019;-79
2022/04/10 02:36:11;;;;;;;5.40;2.30;;;;;;;-144.47;100.00;61586.06;6180924;23;20438;-78
2022/04/10 02:38:38;;;;;;;3.97;2.38;;;;;;;-144.47;100.00;61586.06;6155190;23;20088;-78
2022/04/10 02:41:04;;;;;;;5.60;2.70;;;;;;;-144.47;100.00;61586.06;6154886;23;20013;-78
2022/04/10 02:43:29;;;;;;;3.22;1.90;;;;;;;-144.47;100.00;61586.06;6155300;23;20471;-79
2022/04/10 02:46:00;;;;;;;;;;;;;;;-144.47;100.00;61586.06;6155443;23;20095;-79
2022/04/10 02:48:26;;;;;;;5.50;2.50;;;;;;;-144.47;100.00;61586.06;6155237;23;19950;-76
2022/04/10 02:50:53;;;;;;;2.03;1.90;;;;;;;-144.47;100.00;61586.06;6154396;23;20478;-76
2022/04/10 02:53:19;;;;;;;3.15;2.10;;;;;;;-144.47;100.00;61586.06;6154961;23;20005;-79
2022/04/10 02:55:44;;;;;;;4.95;2.10;;;;;;;-144.47;100.00;61586.06;6154834;23;20023;-78
2022/04/10 02:58:10;;;;;;;3.95;2.10;;;;;;;-144.47;100.00;61586.06;6155225;23;20017;-78
2022/04/10 03:00:36;;;;;;;3.50;2.10;;;;;;;-144.47;100.00;61586.06;6155157;23;20077;-78
2022/04/10 03:03:01;;;;;;;4.85;2.30;;;;;;;-144.47;100.00;61586.06;6154476;23;20009;-77
2022/04/10 03:05:27;;;;;;;2.50;2.30;;;;;;;-144.47;100.00;61586.06;6154939;23;20033;-78
2022/04/10 03:07:52;;;;;;;6.40;2.80;;;;;;;-144.47;100.00;61586.06;6180589;23;20495;-78
2022/04/10 03:10:19;;;;;;;4.60;2.95;;;;;;;-144.47;100.00;61586.06;6155039;23;20381;-78
2022/04/10 03:12:44;;;;;;;3.65;3.00;;;;;;;-144.47;100.00;61586.06;6181376;23;20084;-78
2022/04/10 03:15:10;;;;;;;3.22;2.40;;;;;;;-144.47;100.00;61586.06;6181014;23;20017;-78
2022/04/10 03:17:36;;;;;;;5.35;3.08;;;;;;;-144.47;100.00;61586.06;6155055;23;20077;-78
2022/04/10 03:20:04;;;;;;;6.03;2.75;;;;;;;-144.47;100.00;61586.06;6154393;23;20008;-78
2022/04/10 03:22:29;;;;;;;3.08;2.50;;;;;;;-144.47;100.00;61586.06;6154542;23;20021;-78
2022/04/10 03:24:55;;;;;;;6.30;3.13;;;;;;;-144.47;100.00;61586.06;6180976;23;20736;-76
2022/04/10 03:27:20;;;;;;;4.00;2.65;;;;;;;-144.47;100.00;61586.06;6154780;23;20060;-77
2022/04/10 03:29:46;;;;;;;6.00;3.17;;;;;;;-144.47;100.00;61586.06;6154536;23;20159;-78
2022/04/10 03:32:12;;;;;;;3.97;2.60;;;;;;;-144.47;100.00;61586.06;6181046;23;20013;-78
2022/04/10 03:34:38;;;;;;;4.47;2.95;;;;;;;-144.47;100.00;61586.06;6154704;23;20032;-78
2022/04/10 03:37:05;;;;;;;2.75;2.47;;;;;;;-144.47;100.00;61586.06;6153454;23;20438;-76
2022/04/10 03:39:31;;;;;;;4.20;2.88;;;;;;;-144.47;100.00;61586.06;6154828;23;20163;-77
2022/04/10 03:41:58;;;;;;;5.78;3.03;;;;;;;-144.47;100.00;61586.06;6154430;23;20005;-77
2022/04/10 03:44:24;;;;;;;4.93;3.10;;;;;;;-144.47;100.00;61586.06;6130317;23;20048;-78
2022/04/10 03:46:49;;;;;;;4.30;2.97;;;;;;;-144.47;100.00;61586.06;6155374;23;20025;-78
2022/04/10 03:49:15;;;;;;;2.88;2.67;;;;;;;-144.47;100.00;61586.06;6156511;23;20009;-78
2022/04/10 03:51:40;;;;;;;2.80;2.47;;;;;;;-144.47;100.00;61586.06;6182763;23;20008;-78
2022/04/10 03:54:06;;;;;;;3.55;2.50;;;;;;;-144.47;100.00;61586.06;6155980;23;20013;-77
2022/04/10 03:56:31;;;;;;;3.00;2.55;;;;;;;-144.47;100.00;61586.06;6156327;23;20036;-77
2022/04/10 03:58:57;;;;;;;3.40;2.20;;;;;;;-144.47;100.00;61586.06;6156203;23;20005;-78
2022/04/10 04:01:24;;;;;;;5.05;3.05;;;;;;;-144.47;100.00;61586.06;6156756;23;20005;-77
2022/04/10 04:03:49;;;;;;;7.22;4.80;;;;;;;-144.47;100.00;61586.06;6156197;23;20105;-78
2022/04/10 04:06:15;;;;;;;4.93;2.60;;;;;;;-144.47;100.00;61586.06;6155489;23;20092;-78
2022/04/10 04:08:41;;;;;;;3.75;2.70;;;;;;;-144.47;100.00;61586.06;6131709;23;20068;-78
2022/04/10 04:11:08;;;;;;;6.43;2.70;;;;;;;-144.47;100.00;61586.06;6156289;23;20017;-77
2022/04/10 04:13:41;;;;;;;4.85;2.53;;;;;;;-144.47;100.00;61586.06;6156424;23;20638;-77
2022/04/10 04:16:08;;;;;;;4.10;2.40;;;;;;;-144.47;100.00;61586.06;6155854;23;20098;-79
2022/04/10 04:18:34;;;;;;;3.97;2.60;;;;;;;-144.47;100.00;61586.06;6156239;23;20434;-76
2022/04/10 04:21:02;;;;;;;3.20;2.58;;;;;;;-144.47;100.00;61586.06;6131213;23;20005;-77
2022/04/10 04:23:31;;;;;;;5.72;3.17;;;;;;;-144.47;100.00;61586.06;6156401;23;20009;-77
2022/04/10 04:25:58;;;;;;;2.67;2.42;;;;;;;-144.47;100.00;61586.06;6182185;23;20021;-77
2022/04/10 04:28:23;;;;;;;5.25;2.63;;;;;;;-144.47;100.00;61586.06;6156199;23;20005;-76
2022/04/10 04:30:49;;;;;;;3.47;3.10;;;;;;;-144.47;100.00;61586.06;6156110;23;20040;-79
2022/04/10 04:33:16;;;;;;;7.32;2.95;;;;;;;-144.47;100.00;61586.06;6156284;23;20010;-78
2022/04/10 04:35:42;;;;;;;5.88;3.13;;;;;;;-144.47;100.00;61586.06;6155862;23;20336;-78
2022/04/10 04:38:08;;;;;;;3.25;2.80;;;;;;;-144.47;100.00;61586.06;6155874;23;20012;-77
2022/04/10 04:40:33;;;;;;;3.15;2.90;;;;;;;-144.47;100.00;61586.06;6182515;23;20075;-78
2022/04/10 04:42:59;;;;;;;5.30;2.65;;;;;;;-144.47;100.00;61586.06;6182409;23;20096;-78
2022/04/10 04:45:28;;;;;;;4.00;3.03;;;;;;;-144.47;100.00;61586.06;6180932;23;20445;-79
2022/04/10 04:48:09;;;;;;;3.30;2.80;;;;;;;-144.47;100.00;61586.06;6155774;23;20016;-78
2022/04/10 04:50:34;;;;;;;3.50;3.20;;;;;;;-144.47;100.00;61586.06;6155933;23;20013;-77
2022/04/10 04:53:01;;;;;;;3.85;2.60;;;;;;;-144.47;100.00;61586.06;6154917;23;20020;-78
2022/04/10 04:55:28;;;;;;;4.55;2.55;;;;;;;-144.47;100.00;61586.06;6155900;23;20320;-76
2022/04/10 04:57:55;;;;;;;2.90;2.70;;;;;;;-144.47;100.00;61586.06;6155309;23;20008;-78
2022/04/10 05:00:21;;;;;;;2.63;2.42;;;;;;;-144.47;100.00;61586.06;6155761;23;20063;-77
2022/04/10 05:02:52;;;;;;;2.92;2.70;;;;;;;-144.47;100.00;61586.06;6155521;23;20016;-76
2022/04/10 05:05:17;;;;;;;6.75;2.80;;;;;;;-144.47;100.00;61586.06;6155340;23;20338;-78
2022/04/10 05:07:43;;;;;;;3.50;2.50;;;;;;;-144.47;100.00;61586.06;6181643;23;20020;-76
2022/04/10 05:10:08;;;;;;;4.72;3.40;;;;;;;-144.47;100.00;61586.06;6155316;23;20028;-78
2022/04/10 05:12:37;;;;;;;6.35;2.78;;;;;;;-144.47;100.00;61586.06;6155680;23;20024;-77
2022/04/10 05:15:08;;;;;;;6.40;2.70;;;;;;;-144.47;100.00;61586.06;6181646;23;20464;-77
2022/04/10 05:17:36;;;;;;;4.82;2.60;;;;;;;-144.47;100.00;61586.06;6155575;23;20013;-75
2022/04/10 05:20:05;;;;;;;3.42;2.80;;;;;;;-144.47;100.00;61586.06;6155155;23;20025;-75
2022/04/10 05:22:33;;;;;;;4.30;2.80;;;;;;;-144.47;100.00;61586.06;6154995;23;20092;-76
2022/04/10 05:25:02;;;;;;;3.95;2.78;;;;;;;-144.47;100.00;61586.06;6154734;23;20016;-77
2022/04/10 05:27:29;;;;;;;3.58;2.88;;;;;;;-144.47;100.00;61586.06;6155511;23;20059;-77
2022/04/10 05:29:54;;;;;;;3.08;2.58;;;;;;;-144.47;100.00;61586.06;6155157;23;20044;-76
2022/04/10 05:32:21;;;;;;;6.35;3.25;;;;;;;-144.47;100.00;61586.06;6155753;23;20001;-77
2022/04/10 05:34:46;;;;;;;5.93;3.50;;;;;;;-144.47;100.00;61586.06;6180501;23;20040;-74
2022/04/10 05:37:13;;;;;;;6.75;3.47;;;;;;;-144.47;100.00;61586.06;6152153;23;20013;-75
2022/04/10 05:39:45;;;;;;;7.57;3.75;;;;;;;-144.47;100.00;61586.06;6151884;23;20020;-73
2022/04/10 05:42:11;;;;;;;3.70;3.40;;;;;;;-144.47;100.00;61586.06;6154153;23;20032;-75
2022/04/10 05:44:37;;;;;;;6.60;3.30;;;;;;;-144.47;100.00;61586.06;6131260;23;20343;-75
2022/04/10 05:47:04;;;;;;;3.92;2.97;;;;;;;-144.47;100.00;61586.06;6154634;23;20009;-74
2022/04/10 05:49:30;;;;;;;4.55;3.30;;;;;;;-144.47;100.00;61586.06;6182298;23;20040;-75
2022/04/10 05:51:57;;;;;;;7.57;3.10;;;;;;;-144.47;100.00;61586.06;6154969;23;20065;-75
2022/04/10 05:54:23;;;;;;;3.83;3.10;;;;;;;-144.47;100.00;61586.06;6154002;23;20017;-75
2022/04/10 05:56:52;;;;;;;3.38;3.17;;;;;;;-144.47;100.00;61586.06;6154710;23;20020;-76
2022/04/10 05:59:17;;;;;;;3.22;2.70;;;;;;;-144.47;100.00;61586.06;6155045;23;20009;-74
2022/04/10 06:01:43;;;;;;;4.05;2.90;;;;;;;-144.47;100.00;61586.06;6182207;23;20013;-73
2022/04/10 06:04:10;;;;;;;3.40;2.85;;;;;;;-144.47;100.00;61586.06;6155269;23;20021;-74
2022/04/10 06:06:35;;;;;;;3.78;3.25;;;;;;;-144.47;100.00;61586.06;6154417;23;20096;-74
2022/04/10 06:09:17;;;;;;;6.05;2.95;;;;;;;-144.47;100.00;61586.06;6154616;23;20048;-73
2022/04/10 06:11:43;;;;;;;3.85;3.08;;;;;;;-144.47;100.00;61586.06;6154967;23;20012;-74
2022/04/10 06:14:09;;;;;;;5.25;3.63;;;;;;;-144.47;100.00;61586.06;6155068;23;20013;-75
2022/04/10 06:16:35;;;;;;;3.38;3.08;;;;;;;-144.47;100.00;61586.06;6155430;23;20323;-74
2022/04/10 06:19:01;;;;;;;6.40;3.45;;;;;;;-144.47;100.00;61586.06;6181192;23;20027;-76
2022/04/10 06:21:27;;;;;;;3.35;2.80;;;;;;;-144.47;100.00;61586.06;6155275;23;20355;-75
2022/04/10 06:23:53;;;;;;;5.85;3.38;;;;;;;-144.47;100.00;61586.06;6129737;23;20052;-73
2022/04/10 06:26:26;;;;;;;5.78;3.20;;;;;;;-144.47;100.00;61586.06;6131594;23;20017;-73
2022/04/10 06:28:53;;;;;;;6.47;4.03;;;;;;;-144.47;100.00;61586.06;6154303;23;20035;-74
2022/04/10 06:31:26;;;;;;;5.47;3.25;;;;;;;-144.47;100.00;61586.06;6155013;23;20060;-74
2022/04/10 06:33:54;;;;;;;4.95;3.75;;;;;;;-144.47;100.00;61586.06;6154171;23;20009;-74
2022/04/10 06:36:20;;;;;;;4.82;3.33;;;;;;;-144.47;100.00;61586.06;6155237;23;20445;-75
2022/04/10 06:38:45;;;;;;;5.13;3.45;;;;;;;-144.47;100.00;61586.06;6154890;23;20091;-73
2022/04/10 06:41:17;;;;;;;3.92;3.40;;;;;;;-144.47;100.00;61586.06;6154431;23;20659;-74
2022/04/10 06:43:47;;;;;;;4.40;4.00;;;;;;;-144.47;100.00;61586.06;6181132;23;20013;-73
2022/04/10 06:46:36;;;;;;;11.50;5.20;;;;;;;-144.47;100.00;61586.06;6166667;23;20021;-74
2022/04/10 06:49:12;;;;;;;9.63;5.25;;;;;;;-144.47;100.00;61586.06;6153852;23;20017;-74
2022/04/10 06:51:38;;;;;;;7.72;5.00;;;;;;;-144.47;100.00;61586.06;6154633;23;20044;-74
2022/04/10 06:54:07;;;;;;;11.48;6.18;;;;;;;-144.47;100.00;61586.06;6154206;23;20112;-74
2022/04/10 06:56:33;;;;;;;11.18;7.57;;;;;;;-144.47;100.00;61586.06;6132240;23;20398;-74
2022/04/10 06:58:59;;;;;;;10.43;7.28;;;;;;;-144.47;100.00;61586.06;6155242;23;20013;-75
2022/04/10 07:01:25;;;;;;;14.18;8.48;;;;;;;-144.47;100.00;61586.06;6154642;23;20516;-74
2022/04/10 07:03:51;;;;;;;17.40;8.93;;;;;;;-144.47;100.00;61586.06;6181540;23;20001;-74
2022/04/10 07:06:22;;;;;;;16.40;9.43;;;;;;;-144.47;100.00;61586.06;6154495;23;20009;-73
2022/04/10 07:08:47;;;;;;;15.18;8.95;;;;;;;-144.47;100.00;61586.06;6155022;23;20087;-73
2022/04/10 07:11:14;;;;;;;16.52;9.13;;;;;;;-144.47;100.00;61586.06;6154697;23;20067;-73
2022/04/10 07:13:40;;;;;;;15.55;10.25;;;;;;;-144.47;100.00;61586.06;6155170;23;20025;-73
2022/04/10 07:16:06;;;;;;;14.25;9.32;;;;;;;-144.47;100.00;61586.06;6181324;23;20011;-72
2022/04/10 07:18:31;;;;;;;16.10;10.70;;;;;;;-144.47;100.00;61586.06;6155007;23;20031;-73
2022/04/10 07:21:02;;;;;;;19.75;12.60;;;;;;;-144.47;100.00;61586.06;6182081;23;20009;-75
2022/04/10 07:23:46;;;;;;;19.15;12.82;;;;;;;-144.47;100.00;61586.06;6157347;23;20013;-73
2022/04/10 07:26:20;;;;;;;24.42;13.73;;;;;;;-144.47;100.00;61586.06;6157149;23;20453;-73
2022/04/10 07:28:52;;;;;;;25.27;14.75;;;;;;;-144.47;100.00;61586.06;6181828;23;20005;-72
2022/04/10 07:31:20;;;;;;;20.00;12.93;;;;;;;-144.47;100.00;61586.06;6157307;23;20009;-74
2022/04/10 07:33:46;;;;;;;19.67;12.93;;;;;;;-144.47;100.00;61586.06;6157879;23;20044;-73
2022/04/10 07:36:32;;;;;;;21.02;13.40;;;;;;;-144.47;100.00;61586.06;6181711;23;20323;-73
2022/04/10 07:38:59;;;;;;;19.30;11.85;;;;;;;-144.47;100.00;61586.06;6183505;23;20016;-72
2022/04/10 07:41:31;;;;;;;22.13;11.90;;;;;;;-144.47;100.00;61586.06;6157879;23;20020;-72
2022/04/10 07:43:59;;;;;;;28.38;14.18;;;;;;;-144.47;100.00;61586.06;6156462;23;20016;-73
2022/04/10 07:49:13;;;;;;;17.10;10.48;;;;;;;-144.47;100.00;61586.06;6156615;23;20013;-73
2022/04/10 07:51:47;;;;;;;18.70;11.80;;;;;;;-144.47;100.00;61586.06;6183273;23;20407;-74
2022/04/10 07:54:20;;;;;;;19.88;12.30;;;;;;;-144.47;100.00;61586.06;6134721;23;20024;-74
2022/04/10 07:56:47;;;;;;;13.90;10.20;;;;;;;-144.47;100.00;61586.06;6155678;23;20078;-73
2022/04/10 07:59:17;;;;;;;17.10;11.18;;;;;;;-144.47;100.00;61586.06;6156154;23;20430;-74
2022/04/10 08:01:43;;;;;;;15.55;11.35;;;;;;;-144.47;100.00;61586.06;6156036;23;20499;-73
2022/04/10 08:04:15;;;;;;;17.05;11.43;;;;;;;-144.47;100.00;61586.06;6156684;23;20048;-73
2022/04/10 08:07:07;;;;;;;14.20;10.63;;;;;;;-144.47;100.00;61586.06;6155302;23;20040;-74
2022/04/10 08:09:33;;;;;;;19.33;10.25;;;;;;;-144.47;100.00;61586.06;6183353;23;20332;-74
2022/04/10 08:11:58;;;;;;;17.02;10.95;;;;;;;-144.47;100.00;61586.06;6182906;23;20079;-72
2022/04/10 08:14:24;;;;;;;16.80;11.20;;;;;;;-144.47;100.00;61586.06;6182453;23;20392;-75
2022/04/10 08:16:49;;;;;;;16.92;11.23;;;;;;;-144.47;100.00;61586.06;6178114;23;20044;-74
2022/04/10 08:19:15;;;;;;;17.95;10.82;;;;;;;-144.47;100.00;61586.06;6179186;23;20015;-75
2022/04/10 08:21:57;;;;;;;15.57;10.30;;;;;;;-144.47;100.00;61586.06;6180465;23;20024;-76
2022/04/10 08:24:23;;;;;;;16.27;10.40;;;;;;;-144.47;100.00;61586.06;6154139;23;20009;-76
2022/04/10 08:26:48;;;;;;;17.65;11.05;;;;;;;-144.47;100.00;61586.06;6179461;23;20017;-74
2022/04/10 08:29:13;;;;;;;15.60;10.38;;;;;;;-144.47;100.00;61586.06;6179325;23;20113;-78
2022/04/10 08:31:39;;;;;;;12.48;9.05;;;;;;;-144.47;100.00;61586.06;6181098;23;20020;-76
2022/04/10 08:34:04;;;;;;;13.68;9.73;;;;;;;-144.47;100.00;61586.06;6182008;23;20021;-76
2022/04/10 08:36:32;;;;;;;13.13;9.15;;;;;;;-144.47;100.00;61586.06;6182995;23;20016;-76
2022/04/10 08:38:57;;;;;;;13.13;10.10;;;;;;;-144.47;100.00;61586.06;6182800;23;20019;-79
2022/04/10 08:41:31;;;;;;;14.95;9.10;;;;;;;-144.47;100.00;61586.06;6183297;23;20013;-78
2022/04/10 08:43:59;;;;;;;10.00;7.95;;;;;;;-144.47;100.00;61586.06;6182499;23;20020;-77
2022/04/10 08:46:26;;;;;;;11.40;8.52;;;;;;;-144.47;100.00;61586.06;6182661;23;20252;-77
2022/04/10 08:48:53;;;;;;;11.43;8.25;;;;;;;-144.47;100.00;61586.06;6181985;23;20083;-78
2022/04/10 08:51:18;;;;;;;9.90;7.22;;;;;;;-144.47;100.00;61586.06;6182506;23;20009;-78
2022/04/10 08:53:44;;;;;;;10.30;7.60;;;;;;;-144.47;100.00;61586.06;6182821;23;20020;-75
2022/04/10 08:56:10;;;;;;;10.98;7.35;;;;;;;-144.47;100.00;61586.06;6155534;23;20020;-78
2022/04/10 08:58:35;;;;;;;9.40;7.05;;;;;;;-144.47;100.00;61586.06;6182086;23;20009;-77
2022/04/10 09:01:01;;;;;;;9.85;7.07;;;;;;;-144.47;100.00;61586.06;6182068;23;20088;-75
2022/04/10 09:03:26;;;;;;;8.68;7.07;;;;;;;-144.47;100.00;61586.06;6181641;23;20403;-73
2022/04/10 09:06:02;;;;;;;7.28;6.55;;;;;;;-144.47;100.00;61586.06;6181027;23;20275;-74
2022/04/10 09:08:28;;;;;;;9.35;6.97;;;;;;;-144.47;100.00;61586.06;6183145;23;20013;-77
2022/04/10 09:11:03;;;;;;;8.30;6.57;;;;;;;-144.47;100.00;61586.06;6181612;23;20494;-75
2022/04/10 09:13:49;;;;;;;6.80;5.70;;;;;;;-144.47;100.00;61586.06;6182128;23;20009;-76
2022/04/10 09:16:17;;;;;;;6.43;4.55;;;;;;;-144.47;100.00;61586.06;6182004;23;20009;-75
2022/04/10 09:18:49;;;;;;;4.80;4.40;;;;;;;-144.47;100.00;61586.06;6181905;23;20088;-75
2022/04/10 09:21:16;;;;;;;8.25;5.28;;;;;;;-144.47;100.00;61586.06;6182078;23;20013;-74
2022/04/10 09:23:45;;;;;;;7.00;4.55;;;;;;;-144.47;100.00;61586.06;6182003;23;20016;-75
2022/04/10 09:26:13;;;;;;;7.18;5.88;;;;;;;-144.47;100.00;61586.06;6181827;23;20051;-74
2022/04/10 09:28:44;;;;;;;7.07;6.38;;;;;;;-144.47;100.00;61586.06;6155495;23;20005;-74
2022/04/10 09:31:25;;;;;;;;;;;;;;;-144.47;100.00;61586.06;6155649;23;20152;-73
2022/04/10 09:33:52;;;;;;;8.93;5.50;;;;;;;-144.47;100.00;61586.06;6181223;23;20399;-75
2022/04/10 09:36:32;;;;;;;6.68;5.53;;;;;;;-144.47;100.00;61586.06;6181153;23;20013;-75
2022/04/10 09:38:58;;;;;;;4.88;4.38;;;;;;;-144.47;100.00;61586.06;6180338;23;20453;-76
2022/04/10 09:41:24;;;;;;;3.58;3.03;;;;;;;-144.47;100.00;61586.06;6180935;23;20076;-75
2022/04/10 09:43:50;;;;;;;3.58;2.13;;;;;;;-144.47;100.00;61586.06;6179957;23;20005;-76
2022/04/10 09:46:15;;;;;;;3.67;3.22;;;;;;;-144.47;100.00;61586.06;6180930;23;20076;-75
2022/04/10 09:48:41;;;;;;;5.03;2.92;;;;;;;-144.47;100.00;61586.06;6180438;23;20001;-75
2022/04/10 09:51:06;;;;;;;3.78;3.38;;;;;;;-144.47;100.00;61586.06;6179866;23;20013;-75
2022/04/10 09:53:33;;;;;;;3.33;2.70;;;;;;;-144.47;100.00;61586.06;6180436;23;20032;-74
2022/04/10 09:56:00;;;;;;;3.45;2.63;;;;;;;-144.47;100.00;61586.06;6179394;23;20005;-76
2022/04/10 09:58:26;;;;;;;3.33;1.40;;;;;;;-144.47;100.00;61586.06;6179464;23;20083;-74
2022/04/10 10:00:55;;;;;;;2.65;2.08;;;;;;;-144.47;100.00;61586.06;6152876;23;20084;-75
2022/04/10 10:03:28;;;;;;;2.38;1.95;;;;;;;-144.47;100.00;61586.06;6179446;23;20517;-75
2022/04/10 10:05:55;;;;;;;2.47;2.17;;;;;;;-144.47;100.00;61586.06;6178823;23;20013;-74
2022/04/10 10:08:22;;;;;;;2.85;1.70;;;;;;;-144.47;100.00;61586.06;6179811;23;20460;-74
2022/04/10 10:10:48;;;;;;;2.95;1.55;;;;;;;-144.47;100.00;61586.06;6179703;23;20047;-77
2022/04/10 10:13:14;;;;;;;1.42;1.20;;;;;;;-144.47;100.00;61586.06;6180046;23;20024;-77
2022/04/10 10:15:42;;;;;;;2.83;1.88;;;;;;;-144.47;100.00;61586.06;6180204;23;20434;-77
2022/04/10 10:18:12;;;;;;;2.05;1.67;;;;;;;-144.47;100.00;61586.06;6179253;23;20780;-80
2022/04/10 10:20:40;;;;;;;2.13;1.92;;;;;;;-144.47;100.00;61586.06;6178248;23;20021;-78
2022/04/10 10:23:12;;;;;;;1.75;1.65;;;;;;;-144.47;100.00;61586.06;6179516;23;20017;-76
2022/04/10 10:26:03;;;;;;;2.42;2.00;;;;;;;-144.47;100.00;61586.06;6180098;23;20036;-77
2022/04/10 10:28:36;;;;;;;2.72;1.75;;;;;;;-144.47;100.00;61586.06;6180605;23;20406;-75
2022/04/10 10:31:33;;;;;;;1.65;1.50;;;;;;;-144.47;100.00;61586.06;6180326;23;20071;-76
2022/04/10 10:34:04;;;;;;;2.00;1.58;;;;;;;-144.47;100.00;61586.06;6180183;23;20013;-75
2022/04/10 10:36:29;;;;;;;2.13;1.92;;;;;;;-144.47;100.00;61586.06;6179932;23;20036;-75
2022/04/10 10:38:57;;;;;;;1.42;1.33;;;;;;;-144.47;100.00;61586.06;6179803;23;20338;-76
2022/04/10 10:41:22;;;;;;;3.45;1.65;;;;;;;-144.47;100.00;61586.06;6180384;23;20064;-76
2022/04/10 10:43:49;;;;;;;2.08;1.98;;;;;;;-144.47;100.00;61586.06;6179853;23;20302;-77
2022/04/10 10:46:20;;;;;;;1.85;1.63;;;;;;;-144.47;100.00;61586.06;6180190;23;20012;-76
2022/04/10 10:48:46;;;;;;;2.00;1.83;;;;;;;-144.47;100.00;61586.06;6180228;23;20023;-78
2022/04/10 10:51:11;;;;;;;1.85;1.75;;;;;;;-144.47;100.00;61586.06;6179404;23;20012;-77
2022/04/10 10:53:45;;;;;;;4.07;1.98;;;;;;;-144.47;100.00;61586.06;6181249;23;20393;-78
2022/04/10 10:56:30;;;;;;;1.90;1.70;;;;;;;-144.47;100.00;61586.06;6180356;23;20044;-77
2022/04/10 10:59:18;;;;;;;2.55;1.67;;;;;;;-144.47;100.00;61586.06;6180654;23;20024;-78
2022/04/10 11:02:05;;;;;;;1.90;1.80;;;;;;;-144.47;100.00;61586.06;6180760;23;20071;-77
2022/04/10 11:04:41;;;;;;;4.35;1.80;;;;;;;-144.47;100.00;61586.06;6180838;23;20013;-78
2022/04/10 11:07:24;;;;;;;9.40;2.35;;;;;;;-144.47;100.00;61586.06;6179226;23;20017;-78
2022/04/10 11:10:11;;;;;;;1.63;1.20;;;;;;;-144.47;100.00;61586.06;6151462;23;20077;-78
2022/04/10 11:13:00;;;;;;;1.45;1.35;;;;;;;-144.47;100.00;61586.06;6175649;23;20477;-77
2022/04/10 11:15:30;;;;;;;1.40;1.30;;;;;;;-144.47;100.00;61586.06;6174489;23;20082;-77
2022/04/10 11:18:19;;;;;;;1.33;1.20;;;;;;;-144.47;100.00;61586.06;6147980;23;20083;-80